sensor_id;sensor_type;location;lat;lon;timestamp;P1;durP1;ratioP1;P2;durP2;ratioP2
38262;SDS011;24054;50.128;19.730;2024-02-14T00:00:57;12.80;;;9.90;;
38262;SDS011;24054;50.128;19.730;2024-02-14T00:03:24;11.63;;;8.88;;
38262;SDS011;24054;50.128;19.730;2024-02-14T00:05:51;13.63;;;9.48;;
38262;SDS011;24054;50.128;19.730;2024-02-14T00:08:19;13.43;;;9.65;;
38262;SDS011;24054;50.128;19.730;2024-02-14T00:10:47;12.80;;;9.52;;
38262;SDS011;24054;50.128;19.730;2024-02-14T00:13:16;12.98;;;9.55;;
38262;SDS011;24054;50.128;19.730;2024-02-14T00:15:44;12.73;;;9.65;;
38262;SDS011;24054;50.128;19.730;2024-02-14T00:18:11;12.48;;;9.60;;
38262;SDS011;24054;50.128;19.730;2024-02-14T00:20:38;13.02;;;9.73;;
38262;SDS011;24054;50.128;19.730;2024-02-14T00:23:05;14.20;;;10.30;;
38262;SDS011;24054;50.128;19.730;2024-02-14T00:25:32;14.02;;;10.00;;
38262;SDS011;24054;50.128;19.730;2024-02-14T00:27:59;14.48;;;9.82;;
38262;SDS011;24054;50.128;19.730;2024-02-14T00:30:28;14.27;;;9.98;;
38262;SDS011;24054;50.128;19.730;2024-02-14T00:32:55;12.55;;;9.15;;
38262;SDS011;24054;50.128;19.730;2024-02-14T00:35:22;13.13;;;9.65;;
38262;SDS011;24054;50.128;19.730;2024-02-14T00:37:49;14.25;;;10.30;;
38262;SDS011;24054;50.128;19.730;2024-02-14T00:40:17;14.57;;;10.37;;
38262;SDS011;24054;50.128;19.730;2024-02-14T00:42:44;13.65;;;10.40;;
38262;SDS011;24054;50.128;19.730;2024-02-14T00:45:13;13.32;;;9.48;;
38262;SDS011;24054;50.128;19.730;2024-02-14T00:47:42;15.43;;;11.32;;
38262;SDS011;24054;50.128;19.730;2024-02-14T00:50:09;13.85;;;10.15;;
38262;SDS011;24054;50.128;19.730;2024-02-14T00:52:38;15.07;;;10.95;;
38262;SDS011;24054;50.128;19.730;2024-02-14T00:55:07;13.57;;;10.63;;
38262;SDS011;24054;50.128;19.730;2024-02-14T00:57:34;16.27;;;11.52;;
38262;SDS011;24054;50.128;19.730;2024-02-14T01:00:02;15.95;;;11.25;;
38262;SDS011;24054;50.128;19.730;2024-02-14T01:02:31;15.32;;;11.15;;
38262;SDS011;24054;50.128;19.730;2024-02-14T01:05:00;13.93;;;10.27;;
38262;SDS011;24054;50.128;19.730;2024-02-14T01:07:27;17.67;;;11.32;;
38262;SDS011;24054;50.128;19.730;2024-02-14T01:09:54;14.85;;;10.85;;
38262;SDS011;24054;50.128;19.730;2024-02-14T01:12:21;17.67;;;12.57;;
38262;SDS011;24054;50.128;19.730;2024-02-14T01:14:48;14.60;;;10.55;;
38262;SDS011;24054;50.128;19.730;2024-02-14T01:17:16;15.77;;;11.38;;
38262;SDS011;24054;50.128;19.730;2024-02-14T01:19:44;15.35;;;10.57;;
38262;SDS011;24054;50.128;19.730;2024-02-14T01:22:12;15.18;;;11.13;;
38262;SDS011;24054;50.128;19.730;2024-02-14T01:24:41;14.55;;;11.38;;
38262;SDS011;24054;50.128;19.730;2024-02-14T01:27:09;14.98;;;11.02;;
38262;SDS011;24054;50.128;19.730;2024-02-14T01:29:36;16.15;;;11.32;;
38262;SDS011;24054;50.128;19.730;2024-02-14T01:32:03;16.80;;;12.15;;
38262;SDS011;24054;50.128;19.730;2024-02-14T01:34:32;16.30;;;11.52;;
38262;SDS011;24054;50.128;19.730;2024-02-14T01:36:59;15.68;;;11.50;;
38262;SDS011;24054;50.128;19.730;2024-02-14T01:39:27;16.42;;;11.77;;
38262;SDS011;24054;50.128;19.730;2024-02-14T01:44:21;15.13;;;11.32;;
38262;SDS011;24054;50.128;19.730;2024-02-14T01:46:48;16.33;;;11.40;;
38262;SDS011;24054;50.128;19.730;2024-02-14T01:49:15;16.58;;;11.80;;
38262;SDS011;24054;50.128;19.730;2024-02-14T01:51:43;15.07;;;10.90;;
38262;SDS011;24054;50.128;19.730;2024-02-14T01:54:12;14.40;;;11.07;;
38262;SDS011;24054;50.128;19.730;2024-02-14T01:56:42;15.30;;;10.80;;
38262;SDS011;24054;50.128;19.730;2024-02-14T01:59:10;15.57;;;11.10;;
38262;SDS011;24054;50.128;19.730;2024-02-14T02:01:37;15.82;;;11.18;;
38262;SDS011;24054;50.128;19.730;2024-02-14T02:04:04;15.48;;;11.52;;
38262;SDS011;24054;50.128;19.730;2024-02-14T02:06:32;15.20;;;11.60;;
38262;SDS011;24054;50.128;19.730;2024-02-14T02:08:59;16.38;;;12.10;;
38262;SDS011;24054;50.128;19.730;2024-02-14T02:11:26;17.95;;;12.07;;
38262;SDS011;24054;50.128;19.730;2024-02-14T02:13:55;16.73;;;11.52;;
38262;SDS011;24054;50.128;19.730;2024-02-14T02:16:22;17.48;;;12.13;;
38262;SDS011;24054;50.128;19.730;2024-02-14T02:18:49;16.95;;;11.80;;
38262;SDS011;24054;50.128;19.730;2024-02-14T02:21:16;16.33;;;11.43;;
38262;SDS011;24054;50.128;19.730;2024-02-14T02:23:49;16.35;;;12.07;;
38262;SDS011;24054;50.128;19.730;2024-02-14T02:26:16;15.55;;;11.60;;
38262;SDS011;24054;50.128;19.730;2024-02-14T02:28:44;18.02;;;11.85;;
38262;SDS011;24054;50.128;19.730;2024-02-14T02:31:11;15.68;;;12.00;;
38262;SDS011;24054;50.128;19.730;2024-02-14T02:33:39;16.50;;;12.27;;
38262;SDS011;24054;50.128;19.730;2024-02-14T02:36:06;15.70;;;11.63;;
38262;SDS011;24054;50.128;19.730;2024-02-14T02:38:34;18.17;;;12.77;;
38262;SDS011;24054;50.128;19.730;2024-02-14T02:41:04;16.60;;;12.35;;
38262;SDS011;24054;50.128;19.730;2024-02-14T02:43:32;16.50;;;11.93;;
38262;SDS011;24054;50.128;19.730;2024-02-14T02:45:59;16.48;;;11.98;;
38262;SDS011;24054;50.128;19.730;2024-02-14T02:48:33;18.58;;;12.75;;
38262;SDS011;24054;50.128;19.730;2024-02-14T02:51:01;16.80;;;12.88;;
38262;SDS011;24054;50.128;19.730;2024-02-14T02:53:28;17.35;;;12.57;;
38262;SDS011;24054;50.128;19.730;2024-02-14T02:55:55;18.42;;;12.82;;
38262;SDS011;24054;50.128;19.730;2024-02-14T02:58:24;17.40;;;12.35;;
38262;SDS011;24054;50.128;19.730;2024-02-14T03:03:20;20.58;;;12.32;;
38262;SDS011;24054;50.128;19.730;2024-02-14T03:05:53;18.02;;;13.00;;
38262;SDS011;24054;50.128;19.730;2024-02-14T03:08:21;17.60;;;12.02;;
38262;SDS011;24054;50.128;19.730;2024-02-14T03:10:50;16.35;;;12.35;;
38262;SDS011;24054;50.128;19.730;2024-02-14T03:13:17;15.50;;;11.95;;
38262;SDS011;24054;50.128;19.730;2024-02-14T03:15:46;16.15;;;12.00;;
38262;SDS011;24054;50.128;19.730;2024-02-14T03:18:14;16.27;;;12.00;;
38262;SDS011;24054;50.128;19.730;2024-02-14T03:20:42;16.73;;;12.32;;
38262;SDS011;24054;50.128;19.730;2024-02-14T03:23:09;19.63;;;12.68;;
38262;SDS011;24054;50.128;19.730;2024-02-14T03:25:36;16.35;;;12.05;;
38262;SDS011;24054;50.128;19.730;2024-02-14T03:28:04;16.83;;;12.23;;
38262;SDS011;24054;50.128;19.730;2024-02-14T03:30:34;17.05;;;12.57;;
38262;SDS011;24054;50.128;19.730;2024-02-14T03:33:03;17.63;;;12.63;;
38262;SDS011;24054;50.128;19.730;2024-02-14T03:35:31;15.52;;;11.68;;
38262;SDS011;24054;50.128;19.730;2024-02-14T03:37:59;17.20;;;11.90;;
38262;SDS011;24054;50.128;19.730;2024-02-14T03:40:28;15.65;;;12.15;;
38262;SDS011;24054;50.128;19.730;2024-02-14T03:42:56;18.52;;;13.32;;
38262;SDS011;24054;50.128;19.730;2024-02-14T03:45:23;19.58;;;13.25;;
38262;SDS011;24054;50.128;19.730;2024-02-14T03:47:54;16.40;;;12.48;;
38262;SDS011;24054;50.128;19.730;2024-02-14T03:50:23;18.55;;;12.35;;
38262;SDS011;24054;50.128;19.730;2024-02-14T03:52:50;17.42;;;11.98;;
38262;SDS011;24054;50.128;19.730;2024-02-14T03:55:18;18.23;;;12.97;;
38262;SDS011;24054;50.128;19.730;2024-02-14T03:57:48;16.02;;;11.98;;
38262;SDS011;24054;50.128;19.730;2024-02-14T04:00:16;18.08;;;12.93;;
38262;SDS011;24054;50.128;19.730;2024-02-14T04:02:44;17.05;;;12.77;;
38262;SDS011;24054;50.128;19.730;2024-02-14T04:05:13;19.73;;;12.98;;
38262;SDS011;24054;50.128;19.730;2024-02-14T04:07:42;17.02;;;13.23;;
38262;SDS011;24054;50.128;19.730;2024-02-14T04:10:14;18.73;;;13.55;;
38262;SDS011;24054;50.128;19.730;2024-02-14T04:12:41;19.17;;;12.73;;
38262;SDS011;24054;50.128;19.730;2024-02-14T04:15:09;17.33;;;12.18;;
38262;SDS011;24054;50.128;19.730;2024-02-14T04:17:36;18.13;;;12.55;;
38262;SDS011;24054;50.128;19.730;2024-02-14T04:20:03;15.50;;;12.45;;
38262;SDS011;24054;50.128;19.730;2024-02-14T04:22:31;17.15;;;12.95;;
38262;SDS011;24054;50.128;19.730;2024-02-14T04:25:00;16.67;;;12.15;;
38262;SDS011;24054;50.128;19.730;2024-02-14T04:27:27;16.48;;;12.32;;
38262;SDS011;24054;50.128;19.730;2024-02-14T04:29:54;18.15;;;12.38;;
38262;SDS011;24054;50.128;19.730;2024-02-14T04:32:21;17.73;;;13.07;;
38262;SDS011;24054;50.128;19.730;2024-02-14T04:34:49;15.75;;;12.75;;
38262;SDS011;24054;50.128;19.730;2024-02-14T04:37:17;17.00;;;12.40;;
38262;SDS011;24054;50.128;19.730;2024-02-14T04:39:44;18.30;;;13.23;;
38262;SDS011;24054;50.128;19.730;2024-02-14T04:42:13;18.02;;;13.02;;
38262;SDS011;24054;50.128;19.730;2024-02-14T04:44:40;15.90;;;11.35;;
38262;SDS011;24054;50.128;19.730;2024-02-14T04:47:07;16.55;;;12.77;;
38262;SDS011;24054;50.128;19.730;2024-02-14T04:49:34;18.30;;;13.30;;
38262;SDS011;24054;50.128;19.730;2024-02-14T04:52:02;16.30;;;11.90;;
38262;SDS011;24054;50.128;19.730;2024-02-14T04:54:30;16.90;;;12.52;;
38262;SDS011;24054;50.128;19.730;2024-02-14T04:56:57;17.30;;;12.38;;
38262;SDS011;24054;50.128;19.730;2024-02-14T04:59:25;17.08;;;12.65;;
38262;SDS011;24054;50.128;19.730;2024-02-14T05:01:52;15.02;;;11.77;;
38262;SDS011;24054;50.128;19.730;2024-02-14T05:04:19;16.55;;;12.75;;
38262;SDS011;24054;50.128;19.730;2024-02-14T05:06:47;18.33;;;12.65;;
38262;SDS011;24054;50.128;19.730;2024-02-14T05:09:15;18.13;;;13.00;;
38262;SDS011;24054;50.128;19.730;2024-02-14T05:11:42;18.63;;;12.90;;
38262;SDS011;24054;50.128;19.730;2024-02-14T05:14:09;17.25;;;12.30;;
38262;SDS011;24054;50.128;19.730;2024-02-14T05:16:38;16.05;;;11.93;;
38262;SDS011;24054;50.128;19.730;2024-02-14T05:19:05;16.60;;;12.00;;
38262;SDS011;24054;50.128;19.730;2024-02-14T05:21:32;16.98;;;12.65;;
38262;SDS011;24054;50.128;19.730;2024-02-14T05:24:01;17.15;;;12.38;;
38262;SDS011;24054;50.128;19.730;2024-02-14T05:26:28;16.70;;;11.68;;
38262;SDS011;24054;50.128;19.730;2024-02-14T05:28:55;14.80;;;11.25;;
38262;SDS011;24054;50.128;19.730;2024-02-14T05:31:22;17.80;;;11.85;;
38262;SDS011;24054;50.128;19.730;2024-02-14T05:33:51;14.50;;;11.25;;
38262;SDS011;24054;50.128;19.730;2024-02-14T05:36:18;15.90;;;11.50;;
38262;SDS011;24054;50.128;19.730;2024-02-14T05:38:48;13.50;;;11.00;;
38262;SDS011;24054;50.128;19.730;2024-02-14T05:41:15;17.42;;;11.43;;
38262;SDS011;24054;50.128;19.730;2024-02-14T05:43:43;16.15;;;12.18;;
38262;SDS011;24054;50.128;19.730;2024-02-14T05:46:10;15.23;;;11.07;;
38262;SDS011;24054;50.128;19.730;2024-02-14T05:48:38;16.23;;;11.88;;
38262;SDS011;24054;50.128;19.730;2024-02-14T05:51:07;14.52;;;11.13;;
38262;SDS011;24054;50.128;19.730;2024-02-14T05:53:34;19.38;;;11.90;;
38262;SDS011;24054;50.128;19.730;2024-02-14T05:56:01;16.85;;;11.45;;
38262;SDS011;24054;50.128;19.730;2024-02-14T05:58:29;16.00;;;11.73;;
38262;SDS011;24054;50.128;19.730;2024-02-14T06:00:57;13.20;;;10.57;;
38262;SDS011;24054;50.128;19.730;2024-02-14T06:03:24;14.45;;;10.88;;
38262;SDS011;24054;50.128;19.730;2024-02-14T06:05:51;16.40;;;11.77;;
38262;SDS011;24054;50.128;19.730;2024-02-14T06:08:20;15.88;;;11.13;;
38262;SDS011;24054;50.128;19.730;2024-02-14T06:10:48;16.48;;;11.82;;
38262;SDS011;24054;50.128;19.730;2024-02-14T06:13:15;14.10;;;11.25;;
38262;SDS011;24054;50.128;19.730;2024-02-14T06:15:43;14.43;;;10.57;;
38262;SDS011;24054;50.128;19.730;2024-02-14T06:18:11;14.60;;;10.53;;
38262;SDS011;24054;50.128;19.730;2024-02-14T06:20:38;15.07;;;10.77;;
38262;SDS011;24054;50.128;19.730;2024-02-14T06:23:06;15.93;;;11.07;;
38262;SDS011;24054;50.128;19.730;2024-02-14T06:25:35;16.05;;;10.48;;
38262;SDS011;24054;50.128;19.730;2024-02-14T06:28:03;12.93;;;10.05;;
38262;SDS011;24054;50.128;19.730;2024-02-14T06:30:30;12.98;;;9.75;;
38262;SDS011;24054;50.128;19.730;2024-02-14T06:32:57;14.30;;;10.35;;
38262;SDS011;24054;50.128;19.730;2024-02-14T06:35:25;14.60;;;10.45;;
38262;SDS011;24054;50.128;19.730;2024-02-14T06:37:52;15.18;;;9.75;;
38262;SDS011;24054;50.128;19.730;2024-02-14T06:40:19;15.10;;;10.25;;
38262;SDS011;24054;50.128;19.730;2024-02-14T06:42:49;14.27;;;10.52;;
38262;SDS011;24054;50.128;19.730;2024-02-14T06:47:43;15.82;;;10.15;;
38262;SDS011;24054;50.128;19.730;2024-02-14T06:50:10;12.98;;;9.35;;
38262;SDS011;24054;50.128;19.730;2024-02-14T06:52:37;13.73;;;9.90;;
38262;SDS011;24054;50.128;19.730;2024-02-14T06:55:05;14.38;;;9.57;;
38262;SDS011;24054;50.128;19.730;2024-02-14T06:57:32;12.75;;;9.25;;
38262;SDS011;24054;50.128;19.730;2024-02-14T07:00:01;13.68;;;9.02;;
38262;SDS011;24054;50.128;19.730;2024-02-14T07:02:31;13.05;;;9.10;;
38262;SDS011;24054;50.128;19.730;2024-02-14T07:04:58;13.40;;;9.25;;
38262;SDS011;24054;50.128;19.730;2024-02-14T07:07:26;14.18;;;8.68;;
38262;SDS011;24054;50.128;19.730;2024-02-14T07:09:54;13.25;;;8.63;;
38262;SDS011;24054;50.128;19.730;2024-02-14T07:12:21;13.65;;;9.27;;
38262;SDS011;24054;50.128;19.730;2024-02-14T07:14:48;14.15;;;9.45;;
38262;SDS011;24054;50.128;19.730;2024-02-14T07:17:18;11.87;;;8.90;;
38262;SDS011;24054;50.128;19.730;2024-02-14T07:19:45;15.85;;;10.55;;
38262;SDS011;24054;50.128;19.730;2024-02-14T07:22:14;15.77;;;11.82;;
38262;SDS011;24054;50.128;19.730;2024-02-14T07:24:44;15.77;;;11.35;;
38262;SDS011;24054;50.128;19.730;2024-02-14T07:27:12;16.60;;;12.07;;
38262;SDS011;24054;50.128;19.730;2024-02-14T07:29:40;24.08;;;11.50;;
38262;SDS011;24054;50.128;19.730;2024-02-14T07:32:07;16.92;;;11.52;;
38262;SDS011;24054;50.128;19.730;2024-02-14T07:34:37;15.75;;;10.77;;
38262;SDS011;24054;50.128;19.730;2024-02-14T07:37:05;17.10;;;11.38;;
38262;SDS011;24054;50.128;19.730;2024-02-14T07:39:33;15.20;;;10.77;;
38262;SDS011;24054;50.128;19.730;2024-02-14T07:42:01;17.08;;;11.10;;
38262;SDS011;24054;50.128;19.730;2024-02-14T07:44:28;14.33;;;10.47;;
38262;SDS011;24054;50.128;19.730;2024-02-14T07:46:55;14.82;;;10.50;;
38262;SDS011;24054;50.128;19.730;2024-02-14T07:49:23;14.38;;;10.70;;
38262;SDS011;24054;50.128;19.730;2024-02-14T07:51:52;12.07;;;9.05;;
38262;SDS011;24054;50.128;19.730;2024-02-14T07:54:19;14.55;;;10.00;;
38262;SDS011;24054;50.128;19.730;2024-02-14T07:56:46;16.02;;;9.50;;
38262;SDS011;24054;50.128;19.730;2024-02-14T07:59:13;13.90;;;10.18;;
38262;SDS011;24054;50.128;19.730;2024-02-14T08:01:41;13.45;;;9.38;;
38262;SDS011;24054;50.128;19.730;2024-02-14T08:04:09;11.47;;;8.57;;
38262;SDS011;24054;50.128;19.730;2024-02-14T08:06:36;12.18;;;8.93;;
38262;SDS011;24054;50.128;19.730;2024-02-14T08:09:05;18.45;;;9.23;;
38262;SDS011;24054;50.128;19.730;2024-02-14T08:11:35;11.93;;;8.55;;
38262;SDS011;24054;50.128;19.730;2024-02-14T08:14:02;12.68;;;8.70;;
38262;SDS011;24054;50.128;19.730;2024-02-14T08:16:30;12.07;;;8.75;;
38262;SDS011;24054;50.128;19.730;2024-02-14T08:18:57;10.60;;;7.85;;
38262;SDS011;24054;50.128;19.730;2024-02-14T08:21:25;10.77;;;8.23;;
38262;SDS011;24054;50.128;19.730;2024-02-14T08:23:52;10.73;;;8.13;;
38262;SDS011;24054;50.128;19.730;2024-02-14T08:26:21;11.25;;;8.40;;
38262;SDS011;24054;50.128;19.730;2024-02-14T08:28:49;10.52;;;7.53;;
38262;SDS011;24054;50.128;19.730;2024-02-14T08:31:16;12.05;;;8.05;;
38262;SDS011;24054;50.128;19.730;2024-02-14T08:33:44;9.60;;;7.30;;
38262;SDS011;24054;50.128;19.730;2024-02-14T08:36:11;10.63;;;8.02;;
38262;SDS011;24054;50.128;19.730;2024-02-14T08:38:38;11.10;;;7.53;;
38262;SDS011;24054;50.128;19.730;2024-02-14T08:41:05;9.68;;;7.47;;
38262;SDS011;24054;50.128;19.730;2024-02-14T08:43:34;9.97;;;7.37;;
38262;SDS011;24054;50.128;19.730;2024-02-14T08:46:02;10.98;;;7.20;;
38262;SDS011;24054;50.128;19.730;2024-02-14T08:48:29;9.98;;;7.38;;
38262;SDS011;24054;50.128;19.730;2024-02-14T08:51:00;10.45;;;7.13;;
38262;SDS011;24054;50.128;19.730;2024-02-14T08:53:29;8.80;;;6.97;;
38262;SDS011;24054;50.128;19.730;2024-02-14T08:55:56;9.43;;;6.68;;
38262;SDS011;24054;50.128;19.730;2024-02-14T08:58:23;8.57;;;6.65;;
38262;SDS011;24054;50.128;19.730;2024-02-14T09:00:52;10.40;;;6.85;;
38262;SDS011;24054;50.128;19.730;2024-02-14T09:03:19;8.73;;;6.32;;
38262;SDS011;24054;50.128;19.730;2024-02-14T09:05:46;9.88;;;7.40;;
38262;SDS011;24054;50.128;19.730;2024-02-14T09:08:14;8.38;;;6.70;;
38262;SDS011;24054;50.128;19.730;2024-02-14T09:10:41;8.18;;;6.28;;
38262;SDS011;24054;50.128;19.730;2024-02-14T09:13:11;9.20;;;6.47;;
38262;SDS011;24054;50.128;19.730;2024-02-14T09:15:38;9.83;;;6.47;;
38262;SDS011;24054;50.128;19.730;2024-02-14T09:18:08;12.30;;;7.27;;
38262;SDS011;24054;50.128;19.730;2024-02-14T09:20:35;9.02;;;6.00;;
38262;SDS011;24054;50.128;19.730;2024-02-14T09:23:03;13.27;;;6.53;;
38262;SDS011;24054;50.128;19.730;2024-02-14T09:25:31;9.73;;;6.30;;
38262;SDS011;24054;50.128;19.730;2024-02-14T09:27:58;9.02;;;5.88;;
38262;SDS011;24054;50.128;19.730;2024-02-14T09:30:25;9.57;;;6.05;;
38262;SDS011;24054;50.128;19.730;2024-02-14T09:32:52;9.60;;;6.35;;
38262;SDS011;24054;50.128;19.730;2024-02-14T09:35:21;9.00;;;5.80;;
38262;SDS011;24054;50.128;19.730;2024-02-14T09:37:49;8.60;;;6.03;;
38262;SDS011;24054;50.128;19.730;2024-02-14T09:40:16;10.05;;;6.60;;
38262;SDS011;24054;50.128;19.730;2024-02-14T09:42:43;8.77;;;5.32;;
38262;SDS011;24054;50.128;19.730;2024-02-14T09:45:16;10.38;;;5.95;;
38262;SDS011;24054;50.128;19.730;2024-02-14T09:47:44;7.50;;;5.43;;
38262;SDS011;24054;50.128;19.730;2024-02-14T09:50:12;10.30;;;6.05;;
38262;SDS011;24054;50.128;19.730;2024-02-14T09:52:41;7.13;;;5.05;;
38262;SDS011;24054;50.128;19.730;2024-02-14T09:55:09;8.68;;;5.18;;
38262;SDS011;24054;50.128;19.730;2024-02-14T09:57:37;7.85;;;4.95;;
38262;SDS011;24054;50.128;19.730;2024-02-14T10:00:09;7.75;;;5.53;;
38262;SDS011;24054;50.128;19.730;2024-02-14T10:02:39;6.72;;;4.93;;
38262;SDS011;24054;50.128;19.730;2024-02-14T10:05:06;8.45;;;5.53;;
38262;SDS011;24054;50.128;19.730;2024-02-14T10:07:40;7.80;;;5.03;;
38262;SDS011;24054;50.128;19.730;2024-02-14T10:10:11;7.35;;;5.20;;
38262;SDS011;24054;50.128;19.730;2024-02-14T10:12:39;9.03;;;5.23;;
38262;SDS011;24054;50.128;19.730;2024-02-14T10:15:07;9.05;;;5.10;;
38262;SDS011;24054;50.128;19.730;2024-02-14T10:17:35;6.18;;;4.30;;
38262;SDS011;24054;50.128;19.730;2024-02-14T10:20:02;5.70;;;4.20;;
38262;SDS011;24054;50.128;19.730;2024-02-14T10:22:34;5.68;;;3.90;;
38262;SDS011;24054;50.128;19.730;2024-02-14T10:25:03;6.07;;;3.75;;
38262;SDS011;24054;50.128;19.730;2024-02-14T10:27:33;5.50;;;3.95;;
38262;SDS011;24054;50.128;19.730;2024-02-14T10:30:02;5.68;;;4.22;;
38262;SDS011;24054;50.128;19.730;2024-02-14T10:32:33;5.00;;;3.72;;
38262;SDS011;24054;50.128;19.730;2024-02-14T10:35:01;7.68;;;4.03;;
38262;SDS011;24054;50.128;19.730;2024-02-14T10:37:34;5.07;;;3.80;;
38262;SDS011;24054;50.128;19.730;2024-02-14T10:40:02;6.72;;;4.22;;
38262;SDS011;24054;50.128;19.730;2024-02-14T10:42:31;5.22;;;3.90;;
38262;SDS011;24054;50.128;19.730;2024-02-14T10:45:00;5.63;;;3.88;;
38262;SDS011;24054;50.128;19.730;2024-02-14T10:47:30;5.17;;;3.60;;
38262;SDS011;24054;50.128;19.730;2024-02-14T10:50:00;5.20;;;3.55;;
38262;SDS011;24054;50.128;19.730;2024-02-14T10:52:29;5.40;;;3.78;;
38262;SDS011;24054;50.128;19.730;2024-02-14T10:55:01;7.05;;;3.80;;
38262;SDS011;24054;50.128;19.730;2024-02-14T10:57:30;4.68;;;3.40;;
38262;SDS011;24054;50.128;19.730;2024-02-14T11:00:00;4.70;;;3.08;;
38262;SDS011;24054;50.128;19.730;2024-02-14T11:02:28;4.65;;;3.33;;
38262;SDS011;24054;50.128;19.730;2024-02-14T11:04:57;4.45;;;3.33;;
38262;SDS011;24054;50.128;19.730;2024-02-14T11:07:27;4.38;;;3.10;;
38262;SDS011;24054;50.128;19.730;2024-02-14T11:10:05;5.00;;;3.22;;
38262;SDS011;24054;50.128;19.730;2024-02-14T11:12:33;4.82;;;3.30;;
38262;SDS011;24054;50.128;19.730;2024-02-14T11:15:08;3.70;;;2.90;;
38262;SDS011;24054;50.128;19.730;2024-02-14T11:17:38;3.30;;;2.42;;
38262;SDS011;24054;50.128;19.730;2024-02-14T11:20:13;3.67;;;2.70;;
38262;SDS011;24054;50.128;19.730;2024-02-14T11:22:50;4.38;;;3.10;;
38262;SDS011;24054;50.128;19.730;2024-02-14T11:25:29;4.13;;;3.00;;
38262;SDS011;24054;50.128;19.730;2024-02-14T11:27:57;2.90;;;2.53;;
38262;SDS011;24054;50.128;19.730;2024-02-14T11:30:30;4.40;;;2.88;;
38262;SDS011;24054;50.128;19.730;2024-02-14T11:33:15;2.92;;;2.60;;
38262;SDS011;24054;50.128;19.730;2024-02-14T11:35:45;3.70;;;2.70;;
38262;SDS011;24054;50.128;19.730;2024-02-14T11:40:41;3.38;;;2.28;;
38262;SDS011;24054;50.128;19.730;2024-02-14T11:43:11;3.75;;;2.60;;
38262;SDS011;24054;50.128;19.730;2024-02-14T11:45:40;3.55;;;2.53;;
38262;SDS011;24054;50.128;19.730;2024-02-14T11:48:08;2.55;;;2.10;;
38262;SDS011;24054;50.128;19.730;2024-02-14T11:50:38;3.83;;;2.58;;
38262;SDS011;24054;50.128;19.730;2024-02-14T11:53:06;3.97;;;2.33;;
38262;SDS011;24054;50.128;19.730;2024-02-14T11:55:36;3.33;;;2.40;;
38262;SDS011;24054;50.128;19.730;2024-02-14T11:58:07;2.42;;;2.13;;
38262;SDS011;24054;50.128;19.730;2024-02-14T12:00:36;3.13;;;2.10;;
38262;SDS011;24054;50.128;19.730;2024-02-14T12:03:06;3.85;;;2.30;;
38262;SDS011;24054;50.128;19.730;2024-02-14T12:05:34;3.92;;;2.38;;
38262;SDS011;24054;50.128;19.730;2024-02-14T12:08:03;3.47;;;2.22;;
38262;SDS011;24054;50.128;19.730;2024-02-14T12:10:33;4.05;;;2.03;;
38262;SDS011;24054;50.128;19.730;2024-02-14T12:13:15;3.03;;;2.10;;
38262;SDS011;24054;50.128;19.730;2024-02-14T12:15:46;3.45;;;2.38;;
38262;SDS011;24054;50.128;19.730;2024-02-14T12:18:15;2.85;;;1.80;;
38262;SDS011;24054;50.128;19.730;2024-02-14T12:20:44;4.57;;;3.25;;
38262;SDS011;24054;50.128;19.730;2024-02-14T12:23:14;5.57;;;3.15;;
38262;SDS011;24054;50.128;19.730;2024-02-14T12:28:20;4.85;;;3.22;;
38262;SDS011;24054;50.128;19.730;2024-02-14T12:30:49;4.63;;;3.20;;
38262;SDS011;24054;50.128;19.730;2024-02-14T12:33:21;4.70;;;3.00;;
38262;SDS011;24054;50.128;19.730;2024-02-14T12:35:50;5.35;;;2.95;;
38262;SDS011;24054;50.128;19.730;2024-02-14T12:38:18;3.60;;;2.78;;
38262;SDS011;24054;50.128;19.730;2024-02-14T12:40:48;5.50;;;2.55;;
38262;SDS011;24054;50.128;19.730;2024-02-14T12:43:16;4.88;;;2.47;;
38262;SDS011;24054;50.128;19.730;2024-02-14T12:45:43;5.57;;;2.80;;
38262;SDS011;24054;50.128;19.730;2024-02-14T12:48:12;3.67;;;2.58;;
38262;SDS011;24054;50.128;19.730;2024-02-14T12:50:40;5.22;;;2.60;;
38262;SDS011;24054;50.128;19.730;2024-02-14T12:53:13;5.90;;;2.95;;
38262;SDS011;24054;50.128;19.730;2024-02-14T12:55:40;6.00;;;2.80;;
38262;SDS011;24054;50.128;19.730;2024-02-14T12:58:07;5.47;;;2.97;;
38262;SDS011;24054;50.128;19.730;2024-02-14T13:00:36;6.33;;;3.13;;
38262;SDS011;24054;50.128;19.730;2024-02-14T13:03:03;5.97;;;2.90;;
38262;SDS011;24054;50.128;19.730;2024-02-14T13:05:31;9.40;;;3.65;;
38262;SDS011;24054;50.128;19.730;2024-02-14T13:07:59;10.55;;;4.15;;
38262;SDS011;24054;50.128;19.730;2024-02-14T13:10:26;6.57;;;3.08;;
38262;SDS011;24054;50.128;19.730;2024-02-14T13:12:54;8.33;;;3.20;;
38262;SDS011;24054;50.128;19.730;2024-02-14T13:15:21;6.65;;;3.30;;
38262;SDS011;24054;50.128;19.730;2024-02-14T13:17:49;7.85;;;3.70;;
38262;SDS011;24054;50.128;19.730;2024-02-14T13:20:16;8.25;;;3.40;;
38262;SDS011;24054;50.128;19.730;2024-02-14T13:22:44;7.45;;;3.15;;
38262;SDS011;24054;50.128;19.730;2024-02-14T13:25:11;9.32;;;3.63;;
38262;SDS011;24054;50.128;19.730;2024-02-14T13:27:39;9.60;;;3.63;;
38262;SDS011;24054;50.128;19.730;2024-02-14T13:30:07;6.75;;;3.30;;
38262;SDS011;24054;50.128;19.730;2024-02-14T13:32:34;5.80;;;3.60;;
38262;SDS011;24054;50.128;19.730;2024-02-14T13:35:04;6.85;;;3.80;;
38262;SDS011;24054;50.128;19.730;2024-02-14T13:37:32;5.88;;;3.30;;
38262;SDS011;24054;50.128;19.730;2024-02-14T13:39:59;4.95;;;2.83;;
38262;SDS011;24054;50.128;19.730;2024-02-14T13:42:29;4.78;;;3.08;;
38262;SDS011;24054;50.128;19.730;2024-02-14T13:44:56;5.35;;;3.17;;
38262;SDS011;24054;50.128;19.730;2024-02-14T13:47:23;4.47;;;2.38;;
38262;SDS011;24054;50.128;19.730;2024-02-14T13:49:50;6.05;;;2.75;;
38262;SDS011;24054;50.128;19.730;2024-02-14T13:52:19;5.28;;;2.28;;
38262;SDS011;24054;50.128;19.730;2024-02-14T13:54:49;4.03;;;2.30;;
38262;SDS011;24054;50.128;19.730;2024-02-14T13:57:17;4.78;;;2.45;;
38262;SDS011;24054;50.128;19.730;2024-02-14T13:59:44;6.28;;;2.78;;
38262;SDS011;24054;50.128;19.730;2024-02-14T14:02:12;8.57;;;3.53;;
38262;SDS011;24054;50.128;19.730;2024-02-14T14:04:39;5.55;;;2.47;;
38262;SDS011;24054;50.128;19.730;2024-02-14T14:07:06;3.85;;;2.33;;
38262;SDS011;24054;50.128;19.730;2024-02-14T14:09:34;5.65;;;3.20;;
38262;SDS011;24054;50.128;19.730;2024-02-14T14:12:02;7.03;;;2.70;;
38262;SDS011;24054;50.128;19.730;2024-02-14T14:14:29;5.40;;;3.03;;
38262;SDS011;24054;50.128;19.730;2024-02-14T14:16:57;7.53;;;2.88;;
38262;SDS011;24054;50.128;19.730;2024-02-14T14:19:24;4.13;;;2.70;;
38262;SDS011;24054;50.128;19.730;2024-02-14T14:21:51;4.32;;;2.20;;
38262;SDS011;24054;50.128;19.730;2024-02-14T14:24:18;4.53;;;2.35;;
38262;SDS011;24054;50.128;19.730;2024-02-14T14:26:46;5.15;;;2.28;;
38262;SDS011;24054;50.128;19.730;2024-02-14T14:29:16;3.88;;;2.70;;
38262;SDS011;24054;50.128;19.730;2024-02-14T14:31:43;4.88;;;2.50;;
38262;SDS011;24054;50.128;19.730;2024-02-14T14:34:10;4.20;;;2.38;;
38262;SDS011;24054;50.128;19.730;2024-02-14T14:36:39;3.78;;;2.17;;
38262;SDS011;24054;50.128;19.730;2024-02-14T14:39:06;4.70;;;2.50;;